Time;durP1;ratioP1;P1;durP2;ratioP2;P2;SDS_P1;SDS_P2;PMS_P1;PMS_P2;Temp;Humidity;BMP_temperature;BMP_pressure;BME280_temperature;BME280_humidity;BME280_pressure;Samples;Min_cycle;Max_cycle;Signal;HPM_P1;HPM_P2
2021/12/20 00:00:52;;;;;;;23.63;3.67;;;;;;;;;;5078082;27;92364;-75
2021/12/20 00:03:19;;;;;;;18.85;3.58;;;;;;;;;;5076967;27;92475;-76
2021/12/20 00:05:45;;;;;;;26.20;3.67;;;;;;;;;;5078153;27;92121;-75
2021/12/20 00:08:12;;;;;;;23.92;3.88;;;;;;;;;;5081433;27;92422;-75
2021/12/20 00:10:38;;;;;;;25.05;3.45;;;;;;;;;;5022905;27;95738;-75
2021/12/20 00:13:05;;;;;;;24.08;3.05;;;;;;;;;;5059513;27;92332;-75
2021/12/20 00:15:31;;;;;;;34.35;3.35;;;;;;;;;;5078377;27;92210;-76
2021/12/20 00:17:57;;;;;;;16.27;3.10;;;;;;;;;;5076870;27;93210;-75
2021/12/20 00:20:24;;;;;;;18.63;2.95;;;;;;;;;;5078220;27;92230;-75
2021/12/20 00:22:50;;;;;;;22.85;2.63;;;;;;;;;;5078087;27;93422;-76
2021/12/20 00:25:17;;;;;;;20.58;3.47;;;;;;;;;;5078268;27;92146;-76
2021/12/20 00:27:43;;;;;;;22.05;3.80;;;;;;;;;;5081534;27;91397;-76
2021/12/20 00:30:10;;;;;;;15.35;3.00;;;;;;;;;;5077762;27;94513;-75
2021/12/20 00:32:37;;;;;;;17.67;4.20;;;;;;;;;;5078254;27;92335;-76
2021/12/20 00:35:04;;;;;;;26.60;4.55;;;;;;;;;;5076664;27;94505;-76
2021/12/20 00:40:21;;;;;;;20.15;3.30;;;;;;;;;;5077760;27;92279;-76
2021/12/20 00:42:53;;;;;;;24.70;3.72;;;;;;;;;;5078065;27;93525;-76
2021/12/20 00:45:20;;;;;;;31.48;3.72;;;;;;;;;;5077595;27;94235;-76
2021/12/20 00:47:46;;;;;;;22.17;3.20;;;;;;;;;;5077955;27;92138;-76
2021/12/20 00:50:14;;;;;;;25.70;3.65;;;;;;;;;;5080543;27;93494;-76
2021/12/20 00:52:41;;;;;;;27.42;3.58;;;;;;;;;;5077769;27;91542;-77
2021/12/20 00:55:08;;;;;;;25.15;2.97;;;;;;;;;;5077697;27;92696;-76
2021/12/20 00:57:34;;;;;;;21.92;3.83;;;;;;;;;;5077535;27;92809;-77
2021/12/20 01:00:01;;;;;;;20.25;3.13;;;;;;;;;;5058342;27;94725;-77
2021/12/20 01:02:27;;;;;;;24.33;3.35;;;;;;;;;;5077807;27;95308;-76
2021/12/20 01:04:54;;;;;;;24.30;3.53;;;;;;;;;;5077397;27;93337;-76
2021/12/20 01:07:20;;;;;;;22.60;3.17;;;;;;;;;;5077195;27;92359;-76
2021/12/20 01:09:46;;;;;;;25.55;3.55;;;;;;;;;;5077321;27;93601;-77
2021/12/20 01:12:18;;;;;;;19.08;3.55;;;;;;;;;;5080429;27;93691;-75
2021/12/20 01:14:44;;;;;;;;;;;;;;;;;;5077960;27;92573;-76
2021/12/20 01:17:11;;;;;;;28.50;3.38;;;;;;;;;;5076961;27;122671;-75
2021/12/20 01:19:38;;;;;;;20.70;3.00;;;;;;;;;;5077372;27;92332;-76
2021/12/20 01:22:05;;;;;;;20.33;3.63;;;;;;;;;;5077353;27;92773;-76
2021/12/20 01:24:31;;;;;;;24.55;4.53;;;;;;;;;;5075454;27;95890;-76
2021/12/20 01:26:58;;;;;;;19.35;3.33;;;;;;;;;;5059357;27;92329;-76
2021/12/20 01:29:24;;;;;;;19.08;3.92;;;;;;;;;;5079196;27;93629;-76
2021/12/20 01:31:51;;;;;;;19.60;3.45;;;;;;;;;;5080415;27;93620;-76
2021/12/20 01:34:17;;;;;;;27.30;4.30;;;;;;;;;;5083886;27;92193;-76
2021/12/20 01:36:43;;;;;;;31.98;3.50;;;;;;;;;;5080284;27;93219;-76
2021/12/20 01:39:10;;;;;;;20.23;3.78;;;;;;;;;;5080872;27;92201;-76
2021/12/20 01:41:41;;;;;;;28.33;4.00;;;;;;;;;;5081104;27;93439;-75
2021/12/20 01:44:07;;;;;;;24.05;3.50;;;;;;;;;;5080440;27;93672;-76
2021/12/20 01:46:34;;;;;;;23.58;4.18;;;;;;;;;;5080632;27;92216;-76
2021/12/20 01:49:03;;;;;;;28.83;4.10;;;;;;;;;;5078850;27;94512;-77
2021/12/20 01:51:46;;;;;;;20.83;3.45;;;;;;;;;;5080466;27;93395;-76
2021/12/20 01:54:13;;;;;;;22.58;3.30;;;;;;;;;;5080530;27;92328;-76
2021/12/20 01:56:42;;;;;;;22.67;3.63;;;;;;;;;;5083466;27;93748;-76
2021/12/20 01:59:09;;;;;;;19.60;3.15;;;;;;;;;;5096822;27;93347;-76
2021/12/20 02:01:36;;;;;;;33.35;3.13;;;;;;;;;;5100732;27;93492;-76
2021/12/20 02:04:06;;;;;;;26.88;3.17;;;;;;;;;;5100772;27;93479;-76
2021/12/20 02:06:40;;;;;;;30.67;4.30;;;;;;;;;;5101481;27;91537;-77
2021/12/20 02:09:11;;;;;;;23.98;3.45;;;;;;;;;;5101213;27;92399;-76
2021/12/20 02:11:39;;;;;;;26.02;4.50;;;;;;;;;;5100317;27;93615;-76
2021/12/20 02:14:06;;;;;;;25.50;3.47;;;;;;;;;;5098732;27;95180;-76
2021/12/20 02:16:33;;;;;;;20.58;3.63;;;;;;;;;;5103589;27;95343;-76
2021/12/20 02:19:03;;;;;;;27.42;4.68;;;;;;;;;;5100655;27;92420;-76
2021/12/20 02:21:30;;;;;;;27.55;3.00;;;;;;;;;;5082281;27;94267;-75
2021/12/20 02:23:57;;;;;;;22.42;3.17;;;;;;;;;;5100536;27;93022;-76
2021/12/20 02:26:23;;;;;;;18.25;3.33;;;;;;;;;;5100639;27;92223;-77
2021/12/20 02:28:52;;;;;;;14.57;3.05;;;;;;;;;;5100387;27;93786;-76
2021/12/20 02:37:02;;;;;;;34.65;3.88;;;;;;;;;;5100905;27;92313;-76
2021/12/20 02:39:30;;;;;;;25.50;3.35;;;;;;;;;;5106456;27;96030;-76
2021/12/20 02:41:57;;;;;;;20.50;4.00;;;;;;;;;;5109502;27;94367;-76
2021/12/20 02:44:25;;;;;;;20.90;2.95;;;;;;;;;;5108940;27;92410;-76
2021/12/20 02:47:05;;;;;;;15.27;3.08;;;;;;;;;;5109730;27;92179;-75
2021/12/20 02:49:32;;;;;;;32.45;3.17;;;;;;;;;;5104840;27;92868;-76
2021/12/20 02:52:04;;;;;;;24.88;3.30;;;;;;;;;;5083967;27;94054;-76
2021/12/20 02:54:31;;;;;;;23.85;3.30;;;;;;;;;;5101759;27;92348;-76
2021/12/20 02:56:57;;;;;;;20.70;3.10;;;;;;;;;;5100805;27;93128;-76
2021/12/20 02:59:24;;;;;;;28.45;4.30;;;;;;;;;;5081299;27;96925;-76
2021/12/20 03:01:52;;;;;;;29.80;4.07;;;;;;;;;;5103117;27;92348;-76
2021/12/20 03:04:19;;;;;;;20.17;3.28;;;;;;;;;;5079746;27;96156;-76
2021/12/20 03:06:47;;;;;;;20.10;3.20;;;;;;;;;;5100094;27;92373;-77
2021/12/20 03:09:17;;;;;;;25.52;4.32;;;;;;;;;;5099913;27;93465;-76
2021/12/20 03:11:47;;;;;;;23.85;2.97;;;;;;;;;;5099319;27;93151;-76
2021/12/20 03:16:41;;;;;;;18.35;3.65;;;;;;;;;;5099622;27;93859;-76
2021/12/20 03:19:08;;;;;;;25.05;3.50;;;;;;;;;;5099513;27;93550;-75
2021/12/20 03:21:34;;;;;;;21.52;3.05;;;;;;;;;;5100163;27;91586;-76
2021/12/20 03:24:01;;;;;;;28.35;2.72;;;;;;;;;;5102559;27;92786;-76
2021/12/20 03:26:27;;;;;;;21.00;3.40;;;;;;;;;;5099603;27;92284;-76
2021/12/20 03:28:54;;;;;;;27.20;3.90;;;;;;;;;;5098018;27;94642;-76
2021/12/20 03:31:20;;;;;;;25.75;2.97;;;;;;;;;;5098862;27;93583;-75
2021/12/20 03:33:47;;;;;;;21.70;3.80;;;;;;;;;;5081369;27;92476;-76
2021/12/20 03:36:13;;;;;;;19.40;3.08;;;;;;;;;;5099635;27;92917;-77
2021/12/20 03:38:39;;;;;;;17.90;2.97;;;;;;;;;;5099409;27;92376;-76
2021/12/20 03:41:06;;;;;;;18.05;2.60;;;;;;;;;;5099507;27;92388;-77
2021/12/20 03:43:33;;;;;;;18.50;3.00;;;;;;;;;;5099562;27;93109;-77
2021/12/20 03:46:00;;;;;;;19.02;3.28;;;;;;;;;;5102821;27;92944;-78
2021/12/20 03:48:27;;;;;;;23.48;3.15;;;;;;;;;;5099425;27;93238;-77
2021/12/20 03:50:54;;;;;;;22.15;3.38;;;;;;;;;;5099100;27;93701;-77
2021/12/20 03:53:21;;;;;;;23.60;3.20;;;;;;;;;;5097256;27;94614;-77
2021/12/20 03:55:48;;;;;;;27.05;3.58;;;;;;;;;;5099129;27;96048;-76
2021/12/20 03:58:14;;;;;;;21.98;2.88;;;;;;;;;;5098748;27;94076;-76
2021/12/20 04:00:40;;;;;;;22.23;2.92;;;;;;;;;;5098914;27;92201;-75
2021/12/20 04:03:12;;;;;;;19.13;3.47;;;;;;;;;;5081144;27;93328;-76
2021/12/20 04:05:39;;;;;;;21.17;3.13;;;;;;;;;;5098940;27;93452;-77
2021/12/20 04:08:06;;;;;;;17.58;3.03;;;;;;;;;;5102064;27;92274;-77
2021/12/20 04:10:32;;;;;;;21.58;3.47;;;;;;;;;;5099493;27;92512;-76
2021/12/20 04:12:58;;;;;;;20.20;2.75;;;;;;;;;;5098301;27;92301;-77
2021/12/20 04:15:25;;;;;;;22.48;2.75;;;;;;;;;;5098688;27;92987;-76
2021/12/20 04:17:51;;;;;;;22.85;3.40;;;;;;;;;;5096832;27;95434;-77
2021/12/20 04:20:18;;;;;;;24.45;3.63;;;;;;;;;;5098591;27;92324;-76
2021/12/20 04:22:44;;;;;;;21.88;2.83;;;;;;;;;;5098714;27;93466;-76
2021/12/20 04:25:10;;;;;;;23.67;3.42;;;;;;;;;;5098570;27;93607;-76
2021/12/20 04:27:37;;;;;;;20.52;3.03;;;;;;;;;;5083066;27;92539;-75
2021/12/20 04:30:09;;;;;;;19.90;4.20;;;;;;;;;;5098598;27;93566;-76
2021/12/20 04:32:36;;;;;;;16.90;2.72;;;;;;;;;;5098670;27;92304;-76
2021/12/20 04:35:03;;;;;;;27.23;2.95;;;;;;;;;;5080545;27;93383;-77
2021/12/20 04:37:29;;;;;;;24.25;3.17;;;;;;;;;;5098389;27;93736;-75
2021/12/20 04:39:56;;;;;;;17.65;2.83;;;;;;;;;;5098363;27;92328;-76
2021/12/20 04:42:23;;;;;;;26.38;2.90;;;;;;;;;;5096566;27;94736;-76
2021/12/20 04:44:49;;;;;;;24.95;3.30;;;;;;;;;;5079979;27;95701;-76
2021/12/20 04:47:16;;;;;;;29.55;4.05;;;;;;;;;;5098321;27;92262;-76
2021/12/20 04:49:42;;;;;;;28.25;3.45;;;;;;;;;;5101638;27;92544;-76
2021/12/20 04:52:09;;;;;;;24.52;2.85;;;;;;;;;;5098347;27;92396;-77
2021/12/20 04:54:35;;;;;;;23.30;3.50;;;;;;;;;;5098377;27;93490;-76
2021/12/20 04:57:01;;;;;;;23.10;3.17;;;;;;;;;;5097672;27;93500;-76
2021/12/20 04:59:28;;;;;;;20.25;3.60;;;;;;;;;;5098753;27;92368;-76
2021/12/20 05:01:54;;;;;;;29.35;3.25;;;;;;;;;;5098248;27;92617;-76
2021/12/20 05:04:21;;;;;;;10.85;2.45;;;;;;;;;;5100085;27;93302;-76
2021/12/20 05:06:49;;;;;;;25.83;3.30;;;;;;;;;;5100275;27;94715;-76
2021/12/20 05:09:17;;;;;;;16.75;2.72;;;;;;;;;;5101583;27;95714;-77
2021/12/20 05:11:50;;;;;;;19.90;2.90;;;;;;;;;;5104034;27;93611;-74
2021/12/20 05:14:17;;;;;;;20.88;2.90;;;;;;;;;;5083708;27;92285;-77
2021/12/20 05:16:43;;;;;;;18.88;3.10;;;;;;;;;;5101471;27;93980;-77
2021/12/20 05:19:09;;;;;;;18.52;3.10;;;;;;;;;;5102262;27;92377;-77
2021/12/20 05:21:36;;;;;;;17.55;2.78;;;;;;;;;;5101887;27;93200;-76
2021/12/20 05:24:02;;;;;;;29.17;2.78;;;;;;;;;;5101501;27;93169;-76
2021/12/20 05:26:29;;;;;;;19.95;3.00;;;;;;;;;;5101788;27;92430;-76
2021/12/20 05:28:55;;;;;;;12.20;3.03;;;;;;;;;;5101509;27;93891;-76
2021/12/20 05:31:22;;;;;;;21.42;3.20;;;;;;;;;;5099676;27;95804;-77
2021/12/20 05:33:49;;;;;;;22.52;3.25;;;;;;;;;;5105075;27;92269;-75
2021/12/20 05:36:21;;;;;;;18.65;3.10;;;;;;;;;;5101406;27;93168;-81
2021/12/20 05:38:48;;;;;;;17.13;3.80;;;;;;;;;;5082815;27;92432;-77
2021/12/20 05:41:14;;;;;;;21.08;3.00;;;;;;;;;;5101527;27;92763;-77
2021/12/20 05:43:40;;;;;;;21.25;3.65;;;;;;;;;;5101106;27;93212;-76
2021/12/20 05:46:10;;;;;;;15.77;3.10;;;;;;;;;;5101304;27;92244;-76
2021/12/20 05:48:37;;;;;;;24.08;3.10;;;;;;;;;;5083780;27;93259;-77
2021/12/20 05:51:03;;;;;;;14.90;2.60;;;;;;;;;;5100846;27;92672;-77
2021/12/20 05:53:29;;;;;;;15.05;2.30;;;;;;;;;;5101433;27;92265;-76
2021/12/20 05:55:56;;;;;;;15.30;2.40;;;;;;;;;;5102489;27;94674;-77
2021/12/20 05:58:22;;;;;;;14.32;3.13;;;;;;;;;;5101066;27;92334;-76
2021/12/20 06:00:48;;;;;;;14.02;2.40;;;;;;;;;;5101087;27;93391;-76
2021/12/20 06:03:15;;;;;;;19.92;2.67;;;;;;;;;;5100883;27;93422;-75
2021/12/20 06:05:42;;;;;;;13.82;2.50;;;;;;;;;;5100594;27;92433;-75
2021/12/20 06:08:09;;;;;;;13.70;2.00;;;;;;;;;;5096715;27;92673;-72
2021/12/20 06:10:36;;;;;;;12.77;2.10;;;;;;;;;;5100988;27;93218;-74
2021/12/20 06:13:03;;;;;;;13.48;2.65;;;;;;;;;;5101128;27;91407;-74
2021/12/20 06:15:30;;;;;;;15.35;2.30;;;;;;;;;;5082664;27;93106;-73
2021/12/20 06:17:56;;;;;;;9.60;1.90;;;;;;;;;;5103974;27;93343;-73
2021/12/20 06:20:23;;;;;;;11.57;2.17;;;;;;;;;;5098854;27;95703;-74
2021/12/20 06:22:49;;;;;;;10.98;2.45;;;;;;;;;;5082058;27;94487;-74
2021/12/20 06:25:16;;;;;;;14.65;2.10;;;;;;;;;;5100644;27;92294;-74
2021/12/20 06:27:42;;;;;;;16.33;2.20;;;;;;;;;;5100846;27;93266;-74
2021/12/20 06:30:10;;;;;;;13.10;1.85;;;;;;;;;;5081917;27;96062;-74
2021/12/20 06:32:37;;;;;;;9.40;2.35;;;;;;;;;;5082254;27;92864;-74
2021/12/20 06:35:23;;;;;;;11.48;2.20;;;;;;;;;;5100528;27;93543;-73
2021/12/20 06:37:59;;;;;;;16.20;2.05;;;;;;;;;;5104253;27;92994;-74
2021/12/20 06:40:27;;;;;;;12.52;2.13;;;;;;;;;;5100539;27;92774;-73
2021/12/20 06:42:54;;;;;;;13.77;2.35;;;;;;;;;;5100729;27;93070;-72
2021/12/20 06:45:21;;;;;;;6.78;1.67;;;;;;;;;;5085279;27;94727;-72
2021/12/20 06:47:47;;;;;;;14.57;2.13;;;;;;;;;;5106132;27;95737;-73
2021/12/20 06:50:14;;;;;;;16.30;2.33;;;;;;;;;;5103339;27;93936;-73
2021/12/20 06:52:40;;;;;;;7.47;1.60;;;;;;;;;;5084495;27;92388;-72
2021/12/20 06:55:07;;;;;;;14.68;1.88;;;;;;;;;;5101463;27;93378;-73
2021/12/20 06:57:33;;;;;;;13.65;2.58;;;;;;;;;;5101188;27;93815;-72
2021/12/20 07:00:00;;;;;;;16.00;2.40;;;;;;;;;;5084483;27;92691;-72
2021/12/20 07:02:27;;;;;;;12.88;2.40;;;;;;;;;;5100540;27;92798;-72
2021/12/20 07:04:54;;;;;;;11.20;2.33;;;;;;;;;;5100060;27;92321;-73
2021/12/20 07:07:20;;;;;;;12.90;2.00;;;;;;;;;;5100033;27;93883;-76
2021/12/20 07:09:47;;;;;;;15.02;2.50;;;;;;;;;;5097892;27;95888;-73
2021/12/20 07:12:13;;;;;;;13.88;2.08;;;;;;;;;;5099630;27;92280;-75
2021/12/20 07:14:40;;;;;;;16.70;2.78;;;;;;;;;;5099695;27;93365;-75
2021/12/20 07:17:10;;;;;;;7.47;1.63;;;;;;;;;;5100014;27;93116;-80
2021/12/20 07:19:36;;;;;;;16.88;2.63;;;;;;;;;;5099854;27;92324;-76
2021/12/20 07:22:03;;;;;;;14.68;2.58;;;;;;;;;;5102910;27;92820;-77
2021/12/20 07:24:29;;;;;;;10.40;1.88;;;;;;;;;;5099896;27;92247;-73
2021/12/20 07:26:55;;;;;;;14.88;2.78;;;;;;;;;;5099734;27;92829;-75
2021/12/20 07:29:22;;;;;;;12.95;2.17;;;;;;;;;;5099262;27;93231;-74
2021/12/20 07:31:49;;;;;;;18.65;3.35;;;;;;;;;;5099734;27;92474;-74
2021/12/20 07:34:15;;;;;;;13.40;2.38;;;;;;;;;;5097979;27;94739;-73
2021/12/20 07:36:41;;;;;;;19.63;2.88;;;;;;;;;;5099311;27;93769;-75
2021/12/20 07:39:08;;;;;;;22.05;2.50;;;;;;;;;;5099635;27;93461;-75
2021/12/20 07:41:51;;;;;;;16.73;2.92;;;;;;;;;;5080655;27;94724;-74
2021/12/20 07:44:19;;;;;;;23.58;3.03;;;;;;;;;;5102379;27;93332;-74
2021/12/20 07:46:45;;;;;;;15.77;2.65;;;;;;;;;;5099470;27;93280;-74
2021/12/20 07:49:12;;;;;;;18.35;3.53;;;;;;;;;;5099494;27;93111;-74
2021/12/20 07:51:38;;;;;;;14.20;2.58;;;;;;;;;;5099942;27;91520;-74
2021/12/20 07:54:05;;;;;;;22.23;3.60;;;;;;;;;;5099102;27;92565;-75
2021/12/20 07:56:31;;;;;;;21.98;3.30;;;;;;;;;;5098649;27;93642;-73
2021/12/20 07:58:58;;;;;;;15.05;3.58;;;;;;;;;;5097672;27;94786;-74
2021/12/20 08:01:26;;;;;;;21.77;3.35;;;;;;;;;;5045342;27;95227;-75
2021/12/20 08:03:53;;;;;;;12.68;2.92;;;;;;;;;;5099285;27;93133;-75
2021/12/20 08:06:20;;;;;;;15.68;3.60;;;;;;;;;;5102393;27;92374;-74
2021/12/20 08:08:47;;;;;;;12.95;2.85;;;;;;;;;;5098464;27;93710;-75
2021/12/20 08:11:13;;;;;;;16.60;2.70;;;;;;;;;;5045249;27;93287;-75
2021/12/20 08:13:44;;;;;;;16.63;3.10;;;;;;;;;;5099531;27;92304;-75
2021/12/20 08:16:14;;;;;;;13.40;2.47;;;;;;;;;;5099523;27;91682;-74
2021/12/20 08:18:41;;;;;;;15.20;2.92;;;;;;;;;;5098733;27;92294;-75
2021/12/20 08:21:08;;;;;;;12.50;3.13;;;;;;;;;;5095977;27;92684;-76
2021/12/20 08:23:34;;;;;;;22.25;3.70;;;;;;;;;;5096589;27;95957;-75
2021/12/20 08:26:01;;;;;;;21.98;5.40;;;;;;;;;;5098767;27;92272;-75
2021/12/20 08:28:28;;;;;;;17.13;4.78;;;;;;;;;;5101691;27;93036;-76
2021/12/20 08:30:54;;;;;;;23.58;5.93;;;;;;;;;;5099055;27;92006;-76
2021/12/20 08:33:20;;;;;;;25.00;6.05;;;;;;;;;;5098879;27;93017;-75
2021/12/20 08:35:49;;;;;;;22.02;5.50;;;;;;;;;;5098410;27;93829;-75
2021/12/20 08:38:17;;;;;;;12.02;4.95;;;;;;;;;;5097747;27;92306;-75
2021/12/20 08:40:43;;;;;;;18.95;4.78;;;;;;;;;;5081309;27;93159;-74
2021/12/20 08:43:10;;;;;;;14.43;3.13;;;;;;;;;;5098644;27;94221;-76
2021/12/20 08:45:36;;;;;;;15.82;3.97;;;;;;;;;;5099016;27;93423;-74
2021/12/20 08:48:03;;;;;;;13.25;3.05;;;;;;;;;;5097151;27;95266;-76
2021/12/20 08:50:29;;;;;;;12.00;3.20;;;;;;;;;;5098119;27;92352;-75
2021/12/20 08:52:56;;;;;;;16.05;3.38;;;;;;;;;;5098504;27;93104;-75
2021/12/20 08:55:23;;;;;;;15.10;3.20;;;;;;;;;;5098354;27;93247;-75
2021/12/20 08:57:49;;;;;;;16.25;2.85;;;;;;;;;;5080180;27;92353;-76
2021/12/20 09:00:18;;;;;;;8.30;2.58;;;;;;;;;;5080314;27;93397;-77
2021/12/20 09:02:44;;;;;;;15.20;3.25;;;;;;;;;;5098409;27;93934;-74
2021/12/20 09:05:11;;;;;;;15.60;3.25;;;;;;;;;;5098276;27;91583;-79
2021/12/20 09:07:40;;;;;;;14.82;3.33;;;;;;;;;;5092591;27;92209;-76
2021/12/20 09:10:07;;;;;;;11.88;3.38;;;;;;;;;;5101384;27;93291;-82
2021/12/20 09:12:40;;;;;;;14.63;3.42;;;;;;;;;;5079424;27;94748;-76
2021/12/20 09:15:08;;;;;;;17.83;3.42;;;;;;;;;;5097899;27;93608;-75
2021/12/20 09:17:34;;;;;;;12.70;3.38;;;;;;;;;;5098006;27;92348;-75
2021/12/20 09:20:00;;;;;;;14.57;3.10;;;;;;;;;;5066753;27;92885;-74
2021/12/20 09:22:29;;;;;;;10.80;2.65;;;;;;;;;;5056837;27;93158;-75
2021/12/20 09:24:56;;;;;;;15.30;3.00;;;;;;;;;;5068574;27;92298;-75
2021/12/20 09:27:22;;;;;;;16.20;2.65;;;;;;;;;;5077315;27;93368;-75
2021/12/20 09:29:48;;;;;;;16.88;2.72;;;;;;;;;;5060857;27;92454;-75
2021/12/20 09:32:15;;;;;;;19.27;3.30;;;;;;;;;;5059524;27;92302;-74
2021/12/20 09:34:42;;;;;;;18.88;2.55;;;;;;;;;;5056505;27;93636;-73
2021/12/20 09:37:08;;;;;;;14.75;3.50;;;;;;;;;;5055350;27;94835;-77
2021/12/20 09:39:38;;;;;;;11.55;2.45;;;;;;;;;;5056821;27;94997;-75
2021/12/20 09:42:05;;;;;;;12.38;2.80;;;;;;;;;;5056457;27;93088;-77
2021/12/20 09:44:32;;;;;;;16.70;2.67;;;;;;;;;;5056786;27;92217;-77
2021/12/20 09:47:00;;;;;;;14.90;3.25;;;;;;;;;;5056338;27;93538;-79
2021/12/20 09:49:27;;;;;;;10.60;2.92;;;;;;;;;;5056989;27;93617;-78
2021/12/20 09:51:57;;;;;;;15.32;2.28;;;;;;;;;;5057144;27;92294;-77
2021/12/20 09:54:24;;;;;;;14.85;2.75;;;;;;;;;;5063321;27;92708;-77
2021/12/20 09:56:53;;;;;;;12.27;2.42;;;;;;;;;;5060166;27;92261;-78
2021/12/20 09:59:22;;;;;;;18.45;2.92;;;;;;;;;;5059888;27;93383;-77
2021/12/20 10:01:50;;;;;;;12.63;2.70;;;;;;;;;;5058188;27;95921;-77
2021/12/20 10:04:17;;;;;;;8.55;2.58;;;;;;;;;;5060032;27;92304;-77
2021/12/20 10:06:44;;;;;;;15.68;2.83;;;;;;;;;;5059785;27;93358;-77
2021/12/20 10:09:13;;;;;;;11.15;2.63;;;;;;;;;;5059752;27;93363;-77
2021/12/20 10:11:40;;;;;;;11.30;2.30;;;;;;;;;;5059755;27;92385;-76
2021/12/20 10:14:12;;;;;;;8.77;2.40;;;;;;;;;;5059649;27;92900;-75
2021/12/20 10:16:38;;;;;;;;;;;;;;;;;;5063247;27;94091;-75
2021/12/20 10:19:09;;;;;;;17.50;2.30;;;;;;;;;;5059405;27;122138;-76
2021/12/20 10:21:40;;;;;;;11.00;1.90;;;;;;;;;;5059492;27;93725;-75
2021/12/20 10:24:07;;;;;;;13.20;2.00;;;;;;;;;;5059668;27;92257;-75
2021/12/20 10:26:38;;;;;;;10.57;1.85;;;;;;;;;;5057643;27;96124;-74
2021/12/20 10:29:15;;;;;;;8.95;1.83;;;;;;;;;;5059530;27;93522;-75
2021/12/20 10:31:41;;;;;;;9.50;1.92;;;;;;;;;;5059339;27;92522;-74
2021/12/20 10:34:08;;;;;;;10.88;1.95;;;;;;;;;;5059668;27;93253;-75
2021/12/20 10:36:35;;;;;;;8.55;1.88;;;;;;;;;;5059314;27;93428;-75
2021/12/20 10:39:04;;;;;;;6.38;2.40;;;;;;;;;;5045550;27;92591;-75
2021/12/20 10:41:35;;;;;;;11.60;2.25;;;;;;;;;;5065802;27;92487;-76
2021/12/20 10:44:04;;;;;;;9.15;2.50;;;;;;;;;;5064254;27;91557;-75
2021/12/20 10:46:33;;;;;;;7.45;1.80;;;;;;;;;;5063239;27;92697;-74
2021/12/20 10:49:02;;;;;;;11.27;2.20;;;;;;;;;;5059678;27;94106;-76
2021/12/20 10:51:31;;;;;;;9.57;2.38;;;;;;;;;;5057224;27;94875;-75
2021/12/20 10:54:02;;;;;;;16.00;2.72;;;;;;;;;;5059176;27;94742;-76
2021/12/20 10:56:30;;;;;;;7.60;2.08;;;;;;;;;;5058940;27;93170;-74
2021/12/20 10:58:57;;;;;;;9.75;2.40;;;;;;;;;;5043930;27;92892;-75
2021/12/20 11:04:15;;;;;;;12.55;3.08;;;;;;;;;;5065385;27;93213;-74
2021/12/20 11:09:39;;;;;;;10.93;2.35;;;;;;;;;;5030993;27;93027;-74
2021/12/20 11:12:08;;;;;;;14.18;3.28;;;;;;;;;;5067642;27;92330;-75
2021/12/20 11:14:36;;;;;;;16.00;2.67;;;;;;;;;;5057981;27;93425;-74
2021/12/20 11:17:07;;;;;;;8.23;2.22;;;;;;;;;;5056877;27;95332;-74
2021/12/20 11:19:35;;;;;;;16.55;2.83;;;;;;;;;;5058718;27;92408;-76
2021/12/20 11:22:05;;;;;;;12.57;2.70;;;;;;;;;;5061194;27;93144;-74
2021/12/20 11:24:38;;;;;;;10.90;2.70;;;;;;;;;;5058908;27;92270;-74
2021/12/20 11:27:06;;;;;;;19.63;3.38;;;;;;;;;;5058652;27;93646;-75
2021/12/20 11:29:33;;;;;;;12.15;2.88;;;;;;;;;;5058585;27;93790;-75
2021/12/20 11:32:00;;;;;;;9.32;2.70;;;;;;;;;;5058666;27;92378;-75
2021/12/20 11:34:27;;;;;;;10.48;2.40;;;;;;;;;;5058683;27;93212;-75
2021/12/20 11:36:54;;;;;;;9.00;2.67;;;;;;;;;;5058210;27;93740;-78
2021/12/20 11:39:21;;;;;;;7.60;2.38;;;;;;;;;;5058587;27;92442;-75
2021/12/20 11:41:47;;;;;;;10.23;2.28;;;;;;;;;;5056839;27;94648;-76
2021/12/20 11:44:15;;;;;;;11.55;2.53;;;;;;;;;;5061434;27;93720;-77
2021/12/20 11:47:00;;;;;;;12.23;2.38;;;;;;;;;;5057715;27;93783;-75
2021/12/20 11:49:28;;;;;;;14.02;2.65;;;;;;;;;;5058180;27;92959;-73
2021/12/20 11:51:58;;;;;;;11.73;2.20;;;;;;;;;;5058405;27;92274;-75
2021/12/20 11:54:31;;;;;;;9.88;2.75;;;;;;;;;;5058205;27;92728;-76
2021/12/20 11:56:58;;;;;;;9.55;2.42;;;;;;;;;;5057936;27;93637;-75
2021/12/20 11:59:44;;;;;;;16.15;2.72;;;;;;;;;;5058559;27;91712;-74
2021/12/20 12:02:22;;;;;;;12.23;2.92;;;;;;;;;;5058179;27;92165;-76
2021/12/20 12:04:56;;;;;;;9.05;2.28;;;;;;;;;;5058034;27;93470;-75
2021/12/20 12:07:23;;;;;;;13.05;2.47;;;;;;;;;;5059922;27;95546;-76
2021/12/20 12:09:57;;;;;;;12.02;2.63;;;;;;;;;;5057708;27;93605;-75
2021/12/20 12:12:25;;;;;;;7.63;2.75;;;;;;;;;;5057666;27;92322;-75
2021/12/20 12:15:08;;;;;;;11.30;2.97;;;;;;;;;;5058110;27;92756;-75
2021/12/20 12:17:50;;;;;;;11.73;2.70;;;;;;;;;;5057783;27;94109;-74
2021/12/20 12:20:40;;;;;;;8.45;2.55;;;;;;;;;;5057546;27;92603;-74
2021/12/20 12:23:13;;;;;;;12.30;2.55;;;;;;;;;;5061023;27;93653;-73
2021/12/20 12:25:50;;;;;;;127.13;85.13;;;;;;;;;;5078351;27;93854;-73
2021/12/20 12:28:19;;;;;;;15.65;2.78;;;;;;;;;;5077541;27;92257;-73
2021/12/20 12:31:14;;;;;;;12.30;2.63;;;;;;;;;;5062234;27;96559;-75
2021/12/20 12:33:41;;;;;;;21.88;4.22;;;;;;;;;;5054730;27;94808;-75
2021/12/20 12:36:24;;;;;;;10.43;2.60;;;;;;;;;;5077872;27;95683;-75
2021/12/20 12:38:53;;;;;;;10.98;2.70;;;;;;;;;;5077703;27;94165;-75
2021/12/20 12:41:23;;;;;;;10.80;2.10;;;;;;;;;;5077768;27;92294;-73
2021/12/20 12:44:19;;;;;;;10.13;2.15;;;;;;;;;;5078086;27;92922;-73
2021/12/20 12:46:48;;;;;;;10.88;2.08;;;;;;;;;;5056839;27;93530;-73
2021/12/20 12:49:20;;;;;;;11.18;2.20;;;;;;;;;;5077811;27;92159;-73
2021/12/20 12:52:04;;;;;;;10.30;2.28;;;;;;;;;;5081283;27;93470;-73
2021/12/20 12:54:56;;;;;;;6.93;1.70;;;;;;;;;;5059056;27;94694;-73
2021/12/20 12:57:22;;;;;;;15.40;2.10;;;;;;;;;;5060072;27;93109;-73
2021/12/20 12:59:58;;;;;;;14.30;2.42;;;;;;;;;;5075703;27;96017;-74
2021/12/20 13:02:39;;;;;;;11.05;2.05;;;;;;;;;;5068499;27;92173;-73
2021/12/20 13:05:06;;;;;;;;;;;;;;;;;;5057581;27;92644;-74
2021/12/20 13:07:34;;;;;;;13.68;1.88;;;;;;;;;;5056284;27;122133;-74
2021/12/20 13:10:03;;;;;;;10.75;2.30;;;;;;;;;;5057221;27;92296;-74
2021/12/20 13:12:45;;;;;;;11.18;2.22;;;;;;;;;;5056378;27;93372;-74
2021/12/20 13:17:55;;;;;;;13.93;2.20;;;;;;;;;;5057754;27;93930;-74
2021/12/20 13:22:57;;;;;;;11.10;2.30;;;;;;;;;;5056389;27;92504;-73
2021/12/20 13:25:31;;;;;;;9.77;2.95;;;;;;;;;;5057618;27;94793;-74
2021/12/20 13:27:57;;;;;;;10.32;2.33;;;;;;;;;;5060371;27;93620;-73
2021/12/20 13:30:30;;;;;;;7.93;2.00;;;;;;;;;;5060486;27;92334;-73
2021/12/20 13:32:57;;;;;;;13.00;2.78;;;;;;;;;;5060490;27;93444;-72
2021/12/20 13:35:26;;;;;;;12.70;2.75;;;;;;;;;;5059964;27;93349;-73
2021/12/20 13:38:08;;;;;;;7.30;2.67;;;;;;;;;;5045912;27;92515;-74
2021/12/20 13:40:34;;;;;;;;;;;;;;;;;;5060651;27;93043;-74
2021/12/20 13:43:09;;;;;;;9.82;2.42;;;;;;;;;;5060002;27;115134;-75
2021/12/20 13:45:35;;;;;;;12.55;2.33;;;;;;;;;;5060289;27;93024;-74
2021/12/20 13:48:05;;;;;;;10.45;2.42;;;;;;;;;;5059825;27;93792;-76
2021/12/20 13:50:32;;;;;;;14.82;2.72;;;;;;;;;;5058639;27;94813;-74
2021/12/20 13:52:58;;;;;;;11.18;2.22;;;;;;;;;;5041717;27;98928;-74
2021/12/20 13:55:25;;;;;;;9.45;2.05;;;;;;;;;;5060122;27;93475;-75
2021/12/20 13:57:51;;;;;;;10.10;2.28;;;;;;;;;;5060228;27;92324;-75
2021/12/20 14:00:18;;;;;;;13.38;2.20;;;;;;;;;;5063526;27;93882;-75
2021/12/20 14:02:46;;;;;;;16.35;2.25;;;;;;;;;;5080085;27;92385;-77
2021/12/20 14:05:15;;;;;;;12.57;2.72;;;;;;;;;;5080432;27;92941;-76
2021/12/20 14:07:47;;;;;;;9.05;2.17;;;;;;;;;;5081008;27;92203;-75
2021/12/20 14:10:14;;;;;;;;;;;;;;;;;;5080657;27;92282;-75
2021/12/20 14:12:42;;;;;;;10.30;2.75;;;;;;;;;;5080282;27;92254;-75
2021/12/20 14:15:16;;;;;;;18.92;3.45;;;;;;;;;;5078493;27;95595;-75
2021/12/20 14:17:56;;;;;;;10.30;2.45;;;;;;;;;;5058376;27;92264;-74
2021/12/20 14:20:35;;;;;;;13.38;2.78;;;;;;;;;;5080712;27;92874;-75
2021/12/20 14:23:02;;;;;;;11.40;2.28;;;;;;;;;;5084423;27;93623;-75
2021/12/20 14:25:31;;;;;;;11.98;2.40;;;;;;;;;;5086586;27;92981;-77
2021/12/20 14:27:59;;;;;;;11.52;2.58;;;;;;;;;;5084339;27;93129;-76
2021/12/20 14:30:25;;;;;;;9.80;2.78;;;;;;;;;;5085690;27;92231;-75
2021/12/20 14:32:52;;;;;;;10.60;2.67;;;;;;;;;;5081743;27;93313;-75
2021/12/20 14:35:23;;;;;;;15.45;2.97;;;;;;;;;;5079597;27;93574;-75
2021/12/20 14:37:50;;;;;;;13.02;2.70;;;;;;;;;;5078998;27;92363;-76
2021/12/20 14:40:36;;;;;;;19.20;2.85;;;;;;;;;;5077883;27;94755;-74
2021/12/20 14:43:11;;;;;;;8.82;2.28;;;;;;;;;;5079902;27;92991;-76
2021/12/20 14:45:37;;;;;;;13.63;2.63;;;;;;;;;;5083103;27;92324;-74
2021/12/20 14:48:14;;;;;;;12.45;3.17;;;;;;;;;;5079896;27;93494;-75
2021/12/20 14:50:46;;;;;;;9.25;2.65;;;;;;;;;;5079579;27;92383;-78
2021/12/20 14:53:18;;;;;;;12.25;2.30;;;;;;;;;;5079932;27;93683;-75
2021/12/20 14:55:44;;;;;;;9.75;2.53;;;;;;;;;;5079340;27;93836;-72
2021/12/20 14:58:11;;;;;;;12.85;2.58;;;;;;;;;;5080042;27;91576;-74
2021/12/20 15:00:39;;;;;;;11.27;2.40;;;;;;;;;;5079548;27;92694;-74
2021/12/20 15:03:05;;;;;;;11.23;2.50;;;;;;;;;;5078638;27;93193;-74